Terminal Aerodrome Forecast
Issued by NWS Raleigh/Durham, NC

Home | Current Version | Previous Version | Text Only | Print | Product List | Glossary On
Versions: 1 2 3 4 5 6 7 8 9 10 11 12 13 14 15 16 17 18 19 20 21 22 23 24 25 26 27 28 29 30 31 32 33 34 35 36 37 38 39 40 41 42 43 44 45 46 47 48 49 50
000
FTUS42 KRAH 232339
TAFRDU
TAF
KRDU 232339Z 2400/2424 23014G21KT P6SM SCT050
     FM240600 22015G23KT P6SM BKN035 BKN070
      TEMPO 2407/2410 22020G30KT 6SM SHRA BKN025
     FM241000 24012KT P6SM SCT035 BKN080
     FM241400 26011KT P6SM SCT040 BKN150=

USA.gov is the U.S. government's official web portal to all federal, state and local government web resources and services.